createdAt,value
2022-12-18T00:01:43.096Z,5.03
2022-12-18T00:04:22.953Z,5.03
2022-12-18T00:06:50.887Z,5.53
2022-12-18T00:09:18.611Z,4.80
2022-12-18T00:11:46.025Z,4.85
2022-12-18T00:14:15.384Z,4.82
2022-12-18T00:16:46.017Z,4.88
2022-12-18T00:19:13.874Z,4.90
2022-12-18T00:21:41.325Z,4.75
2022-12-18T00:24:11.675Z,4.53
2022-12-18T00:26:40.140Z,5.10
2022-12-18T00:29:11.737Z,4.75
2022-12-18T00:31:39.515Z,4.32
2022-12-18T00:34:07.864Z,4.93
2022-12-18T00:36:36.175Z,4.80
2022-12-18T00:39:06.282Z,4.80
2022-12-18T00:41:52.488Z,4.93
2022-12-18T00:44:20.641Z,4.80
2022-12-18T00:46:49.430Z,4.60
2022-12-18T00:49:19.755Z,4.70
2022-12-18T00:51:48.256Z,4.57
2022-12-18T00:54:16.596Z,4.63
2022-12-18T00:56:50.689Z,4.97
2022-12-18T00:59:19.287Z,4.72
2022-12-18T01:01:48.005Z,4.53
2022-12-18T01:04:16.297Z,4.90
2022-12-18T01:06:46.495Z,4.63
2022-12-18T01:09:13.809Z,4.60
2022-12-18T01:11:41.791Z,4.60
2022-12-18T01:14:09.343Z,4.10
2022-12-18T01:16:38.379Z,4.80
2022-12-18T01:19:05.614Z,4.55
2022-12-18T01:21:33.694Z,4.70
2022-12-18T01:24:06.105Z,4.32
2022-12-18T01:26:34.763Z,4.38
2022-12-18T01:29:02.343Z,4.57
2022-12-18T01:31:35.752Z,4.35
2022-12-18T01:34:04.650Z,5.00
2022-12-18T01:36:37.633Z,4.88
2022-12-18T01:39:08.017Z,4.13
2022-12-18T01:41:54.970Z,4.30
2022-12-18T01:44:47.377Z,4.50
2022-12-18T01:47:40.778Z,4.50
2022-12-18T01:50:32.430Z,4.50
2022-12-18T01:53:04.944Z,4.20
2022-12-18T01:55:37.413Z,4.20
2022-12-18T01:58:05.383Z,4.45
2022-12-18T02:00:32.955Z,4.45
2022-12-18T02:03:00.553Z,4.45
2022-12-18T02:05:53.951Z,4.43
2022-12-18T02:08:49.414Z,4.32
2022-12-18T02:11:28.866Z,4.50
2022-12-18T02:14:12.651Z,4.45
2022-12-18T02:16:53.062Z,4.32
2022-12-18T02:20:09.718Z,4.55
2022-12-18T02:23:11.640Z,4.70
2022-12-18T02:26:07.193Z,4.03
2022-12-18T02:28:55.076Z,4.43
2022-12-18T02:31:29.572Z,4.70
2022-12-18T02:34:03.408Z,4.47
2022-12-18T02:36:37.681Z,4.75
2022-12-18T02:39:08.864Z,4.45
2022-12-18T02:41:39.869Z,4.25
2022-12-18T02:44:15.357Z,4.60
2022-12-18T02:46:51.832Z,4.55
2022-12-18T02:49:26.817Z,4.50
2022-12-18T02:52:15.218Z,4.32
2022-12-18T02:55:20.069Z,4.65
2022-12-18T02:58:04.488Z,4.60
2022-12-18T03:00:42.655Z,4.90
2022-12-18T03:03:25.597Z,4.78
2022-12-18T03:06:19.641Z,4.57
2022-12-18T03:08:55.452Z,4.40
2022-12-18T03:11:51.052Z,4.45
2022-12-18T03:14:21.876Z,4.70
2022-12-18T03:16:55.275Z,4.70
2022-12-18T03:19:27.540Z,4.60
2022-12-18T03:22:02.641Z,4.50
2022-12-18T03:24:41.266Z,4.30
2022-12-18T03:27:15.922Z,4.18
2022-12-18T03:29:57.051Z,4.30
2022-12-18T03:32:32.397Z,4.73
2022-12-18T03:35:05.807Z,4.93
2022-12-18T03:37:36.978Z,4.38
2022-12-18T03:40:07.653Z,4.60
2022-12-18T03:42:58.495Z,4.53
2022-12-18T03:45:38.787Z,5.15
2022-12-18T03:48:43.047Z,4.97
2022-12-18T03:51:40.579Z,5.53
2022-12-18T03:54:11.055Z,6.50
2022-12-18T03:56:49.902Z,5.63
2022-12-18T03:59:19.241Z,5.68
2022-12-18T04:01:51.164Z,5.40
2022-12-18T04:04:20.175Z,5.32
2022-12-18T04:06:51.127Z,6.00
2022-12-18T04:09:20.799Z,6.35
2022-12-18T04:11:48.843Z,6.07
2022-12-18T04:14:18.216Z,6.50
2022-12-18T04:16:49.939Z,6.70
2022-12-18T04:19:19.715Z,5.95
2022-12-18T04:21:50.654Z,6.28
2022-12-18T04:24:18.391Z,5.88
2022-12-18T04:27:03.107Z,6.50
2022-12-18T04:29:34.593Z,7.07
2022-12-18T04:32:01.881Z,6.30
2022-12-18T04:34:30.748Z,6.38
2022-12-18T04:36:59.250Z,5.85
2022-12-18T04:39:26.747Z,5.80
2022-12-18T04:42:02.399Z,6.07
2022-12-18T04:44:29.466Z,5.78
2022-12-18T04:46:57.037Z,5.90
2022-12-18T04:49:24.605Z,5.80
2022-12-18T04:51:52.774Z,6.82
2022-12-18T04:54:23.124Z,6.90
2022-12-18T04:56:50.845Z,6.03
2022-12-18T04:59:17.995Z,6.32
2022-12-18T05:01:45.372Z,6.75
2022-12-18T05:04:12.686Z,5.93
2022-12-18T05:06:39.874Z,6.15
2022-12-18T05:09:06.985Z,6.05
2022-12-18T05:11:38.429Z,6.85
2022-12-18T05:14:05.681Z,6.68
2022-12-18T05:16:32.989Z,6.88
2022-12-18T05:19:00.448Z,6.47
2022-12-18T05:21:27.983Z,6.50
2022-12-18T05:23:56.465Z,6.50
2022-12-18T05:26:23.670Z,6.93
2022-12-18T05:28:51.395Z,7.65
2022-12-18T05:31:18.879Z,7.72
2022-12-18T05:33:46.378Z,8.52
2022-12-18T05:36:13.903Z,7.22
2022-12-18T05:38:41.695Z,7.43
2022-12-18T05:41:10.605Z,7.47
2022-12-18T05:43:40.053Z,7.55
2022-12-18T05:46:12.945Z,8.13
2022-12-18T05:48:40.383Z,8.95
2022-12-18T05:51:10.126Z,9.25
2022-12-18T05:53:39.112Z,8.85
2022-12-18T05:56:08.816Z,7.72
2022-12-18T05:58:35.954Z,7.95
2022-12-18T06:01:18.309Z,9.68
2022-12-18T06:03:46.884Z,8.80
2022-12-18T06:06:16.635Z,7.47
2022-12-18T06:08:46.450Z,8.18
2022-12-18T06:11:17.071Z,8.90
2022-12-18T06:13:44.158Z,9.10
2022-12-18T06:16:12.087Z,8.23
2022-12-18T06:18:39.420Z,9.40
2022-12-18T06:21:06.801Z,7.97
2022-12-18T06:23:34.073Z,8.32
2022-12-18T06:26:08.557Z,8.23
2022-12-18T06:28:35.982Z,7.60
2022-12-18T06:31:05.146Z,7.63
2022-12-18T06:33:32.967Z,7.07
2022-12-18T06:36:03.813Z,8.30
2022-12-18T06:38:30.949Z,7.97
2022-12-18T06:40:58.305Z,9.57
2022-12-18T06:43:25.646Z,8.05
2022-12-18T06:45:54.085Z,8.63
2022-12-18T06:48:21.391Z,9.15
2022-12-18T06:50:48.820Z,8.27
2022-12-18T06:53:16.107Z,9.48
2022-12-18T06:55:43.566Z,9.50
2022-12-18T06:58:11.112Z,9.70
2022-12-18T07:00:38.942Z,9.57
2022-12-18T07:03:06.078Z,8.68
2022-12-18T07:05:33.592Z,8.05
2022-12-18T07:08:00.952Z,9.20
2022-12-18T07:10:28.794Z,7.97
2022-12-18T07:12:56.285Z,9.13
2022-12-18T07:15:23.444Z,7.85
2022-12-18T07:17:50.622Z,8.98
2022-12-18T07:20:17.910Z,9.50
2022-12-18T07:22:45.313Z,9.13
2022-12-18T07:25:12.501Z,8.60
2022-12-18T07:27:40.044Z,8.90
2022-12-18T07:30:08.405Z,9.02
2022-12-18T07:32:35.681Z,8.90
2022-12-18T07:35:03.082Z,9.10
2022-12-18T07:37:30.623Z,8.70
2022-12-18T07:39:58.134Z,8.70
2022-12-18T07:42:34.396Z,8.68
2022-12-18T07:45:02.679Z,9.23
2022-12-18T07:47:31.451Z,8.82
2022-12-18T07:49:58.806Z,8.32
2022-12-18T07:52:27.100Z,8.88
2022-12-18T07:54:54.615Z,9.55
2022-12-18T07:57:49.041Z,9.13
2022-12-18T08:00:09.856Z,8.82
2022-12-18T08:02:40.301Z,7.85
2022-12-18T08:05:10.159Z,7.40
2022-12-18T08:07:37.457Z,7.93
2022-12-18T08:10:04.876Z,8.48
2022-12-18T08:12:33.760Z,8.32
2022-12-18T08:15:03.582Z,8.07
2022-12-18T08:17:32.021Z,7.15
2022-12-18T08:19:59.117Z,7.65
2022-12-18T08:22:27.046Z,8.77
2022-12-18T08:24:54.185Z,8.20
2022-12-18T08:27:29.422Z,8.20
2022-12-18T08:29:58.138Z,9.25
2022-12-18T08:32:27.571Z,7.82
2022-12-18T08:34:55.619Z,8.45
2022-12-18T08:37:22.924Z,7.63
2022-12-18T08:39:50.176Z,7.55
2022-12-18T08:42:36.218Z,6.90
2022-12-18T08:45:05.187Z,7.75
2022-12-18T08:47:32.411Z,7.38
2022-12-18T08:49:59.568Z,7.43
2022-12-18T08:52:26.898Z,8.07
2022-12-18T08:54:54.219Z,7.80
2022-12-18T08:57:21.558Z,8.10
2022-12-18T08:59:49.441Z,7.95
2022-12-18T09:02:16.955Z,7.72
2022-12-18T09:04:46.403Z,9.40
2022-12-18T09:07:14.156Z,7.78
2022-12-18T09:10:05.013Z,7.65
2022-12-18T09:12:41.281Z,6.70
2022-12-18T09:15:08.883Z,7.07
2022-12-18T09:17:35.975Z,7.30
2022-12-18T09:20:03.912Z,7.30
2022-12-18T09:22:32.409Z,6.70
2022-12-18T09:24:59.630Z,6.63
2022-12-18T09:27:40.392Z,7.45
2022-12-18T09:30:08.602Z,6.20
2022-12-18T09:32:36.475Z,5.82
2022-12-18T09:35:03.885Z,5.18
2022-12-18T09:37:31.007Z,5.05
2022-12-18T09:39:58.397Z,5.30
2022-12-18T09:42:25.633Z,5.38
2022-12-18T09:44:55.736Z,4.43
2022-12-18T09:47:25.542Z,4.63
2022-12-18T09:50:01.243Z,4.63
2022-12-18T09:52:35.394Z,4.30
2022-12-18T09:55:14.572Z,4.30
2022-12-18T09:57:49.041Z,4.22
2022-12-18T10:00:19.232Z,4.40
2022-12-18T10:02:47.521Z,4.13
2022-12-18T10:05:18.423Z,4.05
2022-12-18T10:08:01.087Z,3.70
2022-12-18T10:10:48.663Z,3.50
2022-12-18T10:13:33.627Z,3.28
2022-12-18T10:16:16.646Z,3.50
2022-12-18T10:19:21.390Z,3.38
2022-12-18T10:22:10.375Z,3.53
2022-12-18T10:24:50.255Z,3.60
2022-12-18T10:27:22.828Z,3.60
2022-12-18T10:29:50.893Z,3.95
2022-12-18T10:32:23.673Z,4.13
2022-12-18T10:35:00.195Z,4.18
2022-12-18T10:37:31.202Z,4.00
2022-12-18T10:40:21.973Z,4.72
2022-12-18T10:43:15.058Z,4.40
2022-12-18T10:45:43.626Z,4.35
2022-12-18T10:48:22.472Z,3.70
2022-12-18T10:53:42.908Z,3.33
2022-12-18T10:56:10.610Z,3.60
2022-12-18T10:58:40.394Z,3.72
2022-12-18T11:01:23.147Z,3.50
2022-12-18T11:04:01.865Z,4.00
2022-12-18T11:06:30.731Z,3.80
2022-12-18T11:09:13.127Z,3.90
2022-12-18T11:11:42.599Z,4.53
2022-12-18T11:14:29.787Z,4.28
2022-12-18T11:19:55.740Z,5.00
2022-12-18T11:22:30.081Z,5.80
2022-12-18T11:25:33.274Z,5.75
2022-12-18T11:28:07.624Z,6.30
2022-12-18T11:30:38.375Z,5.80
2022-12-18T11:33:08.480Z,6.18
2022-12-18T11:35:35.792Z,6.63
2022-12-18T11:38:21.517Z,4.72
2022-12-18T11:41:05.352Z,4.78
2022-12-18T11:43:53.893Z,4.80
2022-12-18T11:46:48.046Z,4.70
2022-12-18T11:49:29.814Z,4.30
2022-12-18T11:52:06.125Z,5.05
2022-12-18T11:54:33.318Z,5.18
2022-12-18T11:57:14.626Z,5.80
2022-12-18T11:59:45.090Z,5.80
2022-12-18T12:02:47.277Z,7.03
2022-12-18T12:05:17.796Z,6.55
2022-12-18T12:07:59.701Z,8.73
2022-12-18T12:10:49.053Z,8.50
2022-12-18T12:13:40.046Z,8.02
2022-12-18T12:16:19.681Z,8.30
2022-12-18T12:19:30.768Z,9.27
2022-12-18T12:22:07.269Z,9.07
2022-12-18T12:24:50.814Z,9.10
2022-12-18T12:27:38.816Z,9.88
2022-12-18T12:30:22.344Z,9.63
2022-12-18T12:33:01.501Z,10.02
2022-12-18T12:36:10.776Z,9.35
2022-12-18T12:38:53.795Z,10.10
2022-12-18T12:41:43.992Z,11.98
2022-12-18T12:44:18.304Z,11.32
2022-12-18T12:46:47.691Z,11.63
2022-12-18T12:49:39.080Z,11.90
2022-12-18T12:52:18.189Z,13.43
2022-12-18T12:54:46.305Z,14.07
2022-12-18T12:57:39.176Z,15.02
2022-12-18T13:00:20.759Z,12.75
2022-12-18T13:02:48.317Z,13.98
2022-12-18T13:05:28.723Z,19.10
2022-12-18T13:08:11.566Z,13.38
2022-12-18T13:10:44.170Z,16.67
2022-12-18T13:13:17.143Z,12.50
2022-12-18T13:16:08.267Z,14.98
2022-12-18T13:18:36.300Z,14.20
2022-12-18T13:21:15.795Z,13.50
2022-12-18T13:23:43.587Z,20.52
2022-12-18T13:26:27.985Z,15.70
2022-12-18T13:31:43.436Z,14.43
2022-12-18T13:34:29.680Z,13.45
2022-12-18T13:37:19.702Z,14.27
2022-12-18T13:39:47.144Z,15.48
2022-12-18T13:42:35.000Z,15.55
2022-12-18T13:45:02.798Z,16.80
2022-12-18T13:47:39.195Z,16.38
2022-12-18T13:50:33.965Z,16.02
2022-12-18T13:53:06.495Z,17.23
2022-12-18T13:55:35.706Z,15.75
2022-12-18T13:58:07.374Z,17.13
2022-12-18T14:00:34.903Z,16.88
2022-12-18T14:03:02.486Z,16.48
2022-12-18T14:05:39.387Z,17.02
2022-12-18T14:08:16.489Z,15.90
2022-12-18T14:10:48.308Z,16.27
2022-12-18T14:13:22.777Z,17.48
2022-12-18T14:15:51.474Z,17.67
2022-12-18T14:18:53.742Z,17.73
2022-12-18T14:21:27.487Z,16.95
2022-12-18T14:24:19.691Z,16.30
2022-12-18T14:26:49.619Z,16.77
2022-12-18T14:29:25.491Z,16.40
2022-12-18T14:34:50.279Z,16.63
2022-12-18T14:37:22.186Z,15.93
2022-12-18T14:39:56.680Z,17.10
2022-12-18T14:42:23.996Z,16.33
2022-12-18T14:45:13.030Z,16.05
2022-12-18T14:47:38.156Z,16.30
2022-12-18T14:50:14.999Z,16.63
2022-12-18T14:52:42.247Z,13.93
2022-12-18T14:55:18.247Z,15.93
2022-12-18T14:57:45.927Z,14.20
2022-12-18T15:00:22.630Z,14.05
2022-12-18T15:02:57.779Z,14.25
2022-12-18T15:05:32.513Z,14.55
2022-12-18T15:08:01.624Z,13.23
2022-12-18T15:10:28.791Z,13.38
2022-12-18T15:13:01.028Z,13.30
2022-12-18T15:15:34.330Z,13.05
2022-12-18T15:18:03.973Z,13.00
2022-12-18T15:20:43.053Z,13.70
2022-12-18T15:23:21.047Z,13.55
2022-12-18T15:25:50.095Z,13.88
2022-12-18T15:28:25.106Z,14.60
2022-12-18T15:31:16.935Z,14.82
2022-12-18T15:34:01.823Z,14.82
2022-12-18T15:36:32.501Z,13.68
2022-12-18T15:39:04.569Z,15.05
2022-12-18T15:41:38.133Z,14.32
2022-12-18T15:44:24.042Z,15.80
2022-12-18T15:46:51.512Z,15.38
2022-12-18T15:49:18.592Z,15.77
2022-12-18T15:51:47.280Z,15.15
2022-12-18T15:54:36.136Z,16.77
2022-12-18T15:57:21.782Z,16.00
2022-12-18T15:59:49.314Z,15.65
2022-12-18T16:02:19.386Z,16.05
2022-12-18T16:04:50.103Z,17.70
2022-12-18T16:07:19.244Z,17.40
2022-12-18T16:09:50.585Z,17.13
2022-12-18T16:12:23.691Z,15.68
2022-12-18T16:14:53.416Z,15.85
2022-12-18T16:17:20.959Z,16.08
2022-12-18T16:19:48.111Z,15.77
2022-12-18T16:22:24.238Z,15.50
2022-12-18T16:24:53.364Z,15.23
2022-12-18T16:27:22.048Z,15.80
2022-12-18T16:29:49.435Z,15.75
2022-12-18T16:32:19.614Z,13.52
2022-12-18T16:34:47.472Z,13.05
2022-12-18T16:37:16.517Z,13.73
2022-12-18T16:39:44.200Z,14.40
2022-12-18T16:42:21.269Z,14.25
2022-12-18T16:44:50.350Z,14.38
2022-12-18T16:47:17.959Z,13.73
2022-12-18T16:49:46.511Z,13.60
2022-12-18T16:52:14.384Z,13.10
2022-12-18T16:54:41.604Z,14.18
2022-12-18T16:57:13.504Z,13.50
2022-12-18T16:59:40.780Z,13.70
2022-12-18T17:02:15.956Z,13.90
2022-12-18T17:04:45.736Z,13.82
2022-12-18T17:07:13.981Z,15.35
2022-12-18T17:09:42.230Z,14.10
2022-12-18T17:12:09.882Z,14.15
2022-12-18T17:14:37.344Z,13.25
2022-12-18T17:17:20.883Z,12.55
2022-12-18T17:19:49.622Z,12.48
2022-12-18T17:22:17.123Z,13.88
2022-12-18T17:24:44.365Z,13.10
2022-12-18T17:27:11.901Z,13.05
2022-12-18T17:29:45.407Z,12.90
2022-12-18T17:32:14.519Z,13.40
2022-12-18T17:34:41.797Z,13.82
2022-12-18T17:37:09.323Z,13.35
2022-12-18T17:39:36.736Z,12.57
2022-12-18T17:42:04.100Z,11.88
2022-12-18T17:44:34.461Z,11.48
2022-12-18T17:47:01.824Z,11.57
2022-12-18T17:49:29.328Z,9.77
2022-12-18T17:51:56.699Z,10.65
2022-12-18T17:54:23.843Z,10.48
2022-12-18T17:56:50.988Z,9.82
2022-12-18T17:59:18.140Z,10.45
2022-12-18T18:01:46.475Z,9.75
2022-12-18T18:04:15.880Z,11.55
2022-12-18T18:06:43.305Z,10.63
2022-12-18T18:09:16.458Z,10.50
2022-12-18T18:12:05.676Z,11.07
2022-12-18T18:14:33.535Z,10.38
2022-12-18T18:17:04.374Z,10.80
2022-12-18T18:19:33.342Z,9.82
2022-12-18T18:22:02.917Z,10.65
2022-12-18T18:24:31.130Z,9.57
2022-12-18T18:27:00.367Z,9.57
2022-12-18T18:29:32.695Z,10.18
2022-12-18T18:32:00.411Z,11.18
2022-12-18T18:34:32.323Z,10.43
2022-12-18T18:37:03.064Z,11.45
2022-12-18T18:39:30.734Z,11.00
2022-12-18T18:41:58.134Z,11.45
2022-12-18T18:44:26.558Z,11.20
2022-12-18T18:46:58.176Z,11.45
2022-12-18T18:49:28.082Z,10.70
2022-12-18T18:51:56.913Z,12.13
2022-12-18T18:54:25.175Z,12.13
2022-12-18T18:59:39.911Z,13.95
2022-12-18T19:02:09.548Z,13.38
2022-12-18T19:04:38.478Z,13.18
2022-12-18T19:07:13.248Z,13.32
2022-12-18T19:09:42.781Z,13.38
2022-12-18T19:12:28.321Z,12.25
2022-12-18T19:17:27.948Z,12.48
2022-12-18T19:19:57.210Z,13.03
2022-12-18T19:22:24.367Z,11.82
2022-12-18T19:24:52.556Z,11.20
2022-12-18T19:27:19.689Z,11.00
2022-12-18T19:29:47.071Z,10.75
2022-12-18T19:32:14.313Z,11.00
2022-12-18T19:34:42.378Z,12.05
2022-12-18T19:37:11.987Z,11.43
2022-12-18T19:39:39.530Z,11.77
2022-12-18T19:42:06.913Z,11.30
2022-12-18T19:44:34.169Z,11.25
2022-12-18T19:47:01.506Z,11.20
2022-12-18T19:49:29.018Z,11.13
2022-12-18T19:51:56.516Z,11.52
2022-12-18T19:54:24.000Z,11.52
2022-12-18T19:56:53.493Z,12.52
2022-12-18T19:59:20.654Z,11.63
2022-12-18T20:01:48.078Z,12.35
2022-12-18T20:04:15.414Z,11.30
2022-12-18T20:06:53.847Z,11.40
2022-12-18T20:09:21.841Z,11.05
2022-12-18T20:11:49.862Z,12.02
2022-12-18T20:14:22.655Z,10.82
2022-12-18T20:16:52.996Z,11.48
2022-12-18T20:19:21.099Z,11.80
2022-12-18T20:21:48.394Z,12.13
2022-12-18T20:24:16.185Z,11.93
2022-12-18T20:26:43.480Z,12.13
2022-12-18T20:29:10.599Z,12.43
2022-12-18T20:31:37.921Z,11.63
2022-12-18T20:34:06.204Z,11.48
2022-12-18T20:36:35.253Z,12.68
2022-12-18T20:39:06.592Z,12.20
2022-12-18T20:41:38.232Z,11.45
2022-12-18T20:44:21.644Z,11.80
2022-12-18T20:46:58.275Z,11.65
2022-12-18T20:49:26.787Z,11.65
2022-12-18T20:51:56.614Z,12.60
2022-12-18T20:54:26.360Z,12.30
2022-12-18T20:56:53.846Z,11.82
2022-12-18T20:59:21.334Z,13.07
2022-12-18T21:01:49.635Z,13.07
2022-12-18T21:04:18.905Z,12.38
2022-12-18T21:06:52.946Z,12.93
2022-12-18T21:09:23.851Z,11.90
2022-12-18T21:12:10.374Z,11.85
2022-12-18T21:14:42.120Z,12.30
2022-12-18T21:17:09.312Z,11.52
2022-12-18T21:19:36.808Z,11.70
2022-12-18T21:22:04.654Z,11.65
2022-12-18T21:24:32.714Z,11.52
2022-12-18T21:27:02.096Z,12.05
2022-12-18T21:29:29.471Z,11.38
2022-12-18T21:31:56.993Z,10.30
2022-12-18T21:34:27.105Z,10.13
2022-12-18T21:36:56.215Z,10.68
2022-12-18T21:39:25.079Z,10.48
2022-12-18T21:42:19.189Z,10.93
2022-12-18T21:44:48.405Z,10.07
2022-12-18T21:47:21.651Z,9.82
2022-12-18T21:49:54.223Z,9.93
2022-12-18T21:52:31.158Z,9.68
2022-12-18T21:55:08.893Z,10.50
2022-12-18T21:57:39.426Z,10.75
2022-12-18T22:00:11.040Z,10.13
2022-12-18T22:02:45.499Z,9.90
2022-12-18T22:05:12.890Z,9.50
2022-12-18T22:07:40.587Z,9.70
2022-12-18T22:10:08.200Z,9.98
2022-12-18T22:12:35.840Z,9.80
2022-12-18T22:15:12.742Z,10.30
2022-12-18T22:17:47.043Z,9.70
2022-12-18T22:20:14.242Z,9.70
2022-12-18T22:22:41.280Z,9.77
2022-12-18T22:25:10.385Z,10.00
2022-12-18T22:27:38.227Z,10.48
2022-12-18T22:30:06.021Z,10.57
2022-12-18T22:32:34.378Z,10.45
2022-12-18T22:35:07.949Z,10.15
2022-12-18T22:37:37.883Z,10.13
2022-12-18T22:40:07.348Z,10.85
2022-12-18T22:42:34.762Z,10.50
2022-12-18T22:45:02.075Z,9.88
2022-12-18T22:47:31.459Z,10.63
2022-12-18T22:49:58.718Z,10.20
2022-12-18T22:52:25.914Z,10.52
2022-12-18T22:54:54.340Z,10.75
2022-12-18T22:57:22.621Z,11.02
2022-12-18T22:59:52.965Z,10.93
2022-12-18T23:02:20.813Z,11.75
2022-12-18T23:04:48.132Z,10.63
2022-12-18T23:07:16.067Z,11.82
2022-12-18T23:09:43.821Z,10.98
2022-12-18T23:12:15.993Z,10.60
2022-12-18T23:14:43.447Z,11.15
2022-12-18T23:17:11.191Z,11.38
2022-12-18T23:19:38.372Z,12.02
2022-12-18T23:22:11.378Z,12.50
2022-12-18T23:24:39.134Z,11.70
2022-12-18T23:27:11.552Z,11.48
2022-12-18T23:29:40.289Z,11.68
2022-12-18T23:32:08.200Z,11.38
2022-12-18T23:34:35.536Z,11.20
2022-12-18T23:37:03.923Z,11.73
2022-12-18T23:39:31.238Z,11.38
2022-12-18T23:41:59.569Z,11.60
2022-12-18T23:44:26.828Z,10.98
2022-12-18T23:46:54.174Z,12.45
2022-12-18T23:49:21.558Z,11.18
2022-12-18T23:51:49.296Z,11.73
2022-12-18T23:54:16.498Z,11.25
2022-12-18T23:56:43.688Z,11.65
2022-12-18T23:59:10.808Z,11.52
